sensor_id;sensor_type;location;lat;lon;timestamp;P1;durP1;ratioP1;P2;durP2;ratioP2
23001;SDS011;11667;51.706;4.856;2022-11-13T00:01:09;77.97;;;44.42;;
23001;SDS011;11667;51.706;4.856;2022-11-13T00:03:58;106.00;;;43.73;;
23001;SDS011;11667;51.706;4.856;2022-11-13T00:06:45;64.85;;;43.90;;
23001;SDS011;11667;51.706;4.856;2022-11-13T00:09:32;64.42;;;42.03;;
23001;SDS011;11667;51.706;4.856;2022-11-13T00:12:20;66.30;;;43.73;;
23001;SDS011;11667;51.706;4.856;2022-11-13T00:15:07;72.85;;;47.50;;
23001;SDS011;11667;51.706;4.856;2022-11-13T00:17:55;71.65;;;45.45;;
23001;SDS011;11667;51.706;4.856;2022-11-13T00:20:43;65.00;;;42.23;;
23001;SDS011;11667;51.706;4.856;2022-11-13T00:23:30;58.78;;;39.15;;
23001;SDS011;11667;51.706;4.856;2022-11-13T00:26:20;61.90;;;40.08;;
23001;SDS011;11667;51.706;4.856;2022-11-13T00:29:08;60.23;;;39.98;;
23001;SDS011;11667;51.706;4.856;2022-11-13T00:31:56;65.87;;;42.62;;
23001;SDS011;11667;51.706;4.856;2022-11-13T00:34:43;61.50;;;41.20;;
23001;SDS011;11667;51.706;4.856;2022-11-13T00:37:32;67.78;;;43.08;;
23001;SDS011;11667;51.706;4.856;2022-11-13T00:40:20;66.33;;;41.92;;
23001;SDS011;11667;51.706;4.856;2022-11-13T00:43:07;67.65;;;42.30;;
23001;SDS011;11667;51.706;4.856;2022-11-13T00:45:54;69.27;;;43.05;;
23001;SDS011;11667;51.706;4.856;2022-11-13T00:48:42;72.50;;;43.52;;
23001;SDS011;11667;51.706;4.856;2022-11-13T00:51:30;68.37;;;43.48;;
23001;SDS011;11667;51.706;4.856;2022-11-13T00:54:17;74.12;;;43.40;;
23001;SDS011;11667;51.706;4.856;2022-11-13T00:57:05;69.58;;;42.58;;
23001;SDS011;11667;51.706;4.856;2022-11-13T00:59:52;68.30;;;42.40;;
23001;SDS011;11667;51.706;4.856;2022-11-13T01:02:40;65.47;;;41.28;;
23001;SDS011;11667;51.706;4.856;2022-11-13T01:05:27;61.92;;;40.95;;
23001;SDS011;11667;51.706;4.856;2022-11-13T01:08:14;67.27;;;41.90;;
23001;SDS011;11667;51.706;4.856;2022-11-13T01:11:06;64.37;;;40.85;;
23001;SDS011;11667;51.706;4.856;2022-11-13T01:16:42;66.05;;;40.67;;
23001;SDS011;11667;51.706;4.856;2022-11-13T01:19:29;64.53;;;40.70;;
23001;SDS011;11667;51.706;4.856;2022-11-13T01:22:16;62.00;;;39.45;;
23001;SDS011;11667;51.706;4.856;2022-11-13T01:25:03;63.45;;;39.33;;
23001;SDS011;11667;51.706;4.856;2022-11-13T01:27:51;67.10;;;40.33;;
23001;SDS011;11667;51.706;4.856;2022-11-13T01:30:38;65.35;;;39.38;;
23001;SDS011;11667;51.706;4.856;2022-11-13T01:33:26;62.88;;;39.03;;
23001;SDS011;11667;51.706;4.856;2022-11-13T01:36:20;60.63;;;37.90;;
23001;SDS011;11667;51.706;4.856;2022-11-13T01:39:04;61.53;;;39.75;;
23001;SDS011;11667;51.706;4.856;2022-11-13T01:41:51;58.05;;;36.25;;
23001;SDS011;11667;51.706;4.856;2022-11-13T01:44:53;61.05;;;37.58;;
23001;SDS011;11667;51.706;4.856;2022-11-13T01:47:42;59.18;;;35.50;;
23001;SDS011;11667;51.706;4.856;2022-11-13T01:50:30;63.15;;;37.53;;
23001;SDS011;11667;51.706;4.856;2022-11-13T01:53:18;58.00;;;37.05;;
23001;SDS011;11667;51.706;4.856;2022-11-13T01:56:05;55.63;;;35.65;;
23001;SDS011;11667;51.706;4.856;2022-11-13T01:58:55;55.08;;;35.48;;
23001;SDS011;11667;51.706;4.856;2022-11-13T02:01:53;57.62;;;36.55;;
23001;SDS011;11667;51.706;4.856;2022-11-13T02:04:41;57.43;;;36.48;;
23001;SDS011;11667;51.706;4.856;2022-11-13T02:07:29;59.65;;;37.45;;
23001;SDS011;11667;51.706;4.856;2022-11-13T02:10:16;59.40;;;36.48;;
23001;SDS011;11667;51.706;4.856;2022-11-13T02:13:04;61.30;;;37.25;;
23001;SDS011;11667;51.706;4.856;2022-11-13T02:15:51;59.05;;;36.00;;
23001;SDS011;11667;51.706;4.856;2022-11-13T02:18:39;57.58;;;36.35;;
23001;SDS011;11667;51.706;4.856;2022-11-13T02:21:30;58.35;;;35.73;;
23001;SDS011;11667;51.706;4.856;2022-11-13T02:24:24;59.35;;;36.15;;
23001;SDS011;11667;51.706;4.856;2022-11-13T02:33:18;52.15;;;34.18;;
23001;SDS011;11667;51.706;4.856;2022-11-13T02:36:15;54.40;;;34.85;;
23001;SDS011;11667;51.706;4.856;2022-11-13T02:39:04;56.25;;;34.90;;
23001;SDS011;11667;51.706;4.856;2022-11-13T02:41:53;53.35;;;33.42;;
23001;SDS011;11667;51.706;4.856;2022-11-13T02:44:41;54.73;;;33.88;;
23001;SDS011;11667;51.706;4.856;2022-11-13T02:47:28;50.50;;;33.20;;
23001;SDS011;11667;51.706;4.856;2022-11-13T02:50:15;52.20;;;33.38;;
23001;SDS011;11667;51.706;4.856;2022-11-13T02:53:04;49.98;;;32.63;;
23001;SDS011;11667;51.706;4.856;2022-11-13T02:55:52;50.03;;;32.60;;
23001;SDS011;11667;51.706;4.856;2022-11-13T02:58:40;52.33;;;32.85;;
23001;SDS011;11667;51.706;4.856;2022-11-13T03:01:27;49.65;;;31.55;;
23001;SDS011;11667;51.706;4.856;2022-11-13T03:04:15;48.78;;;30.92;;
23001;SDS011;11667;51.706;4.856;2022-11-13T03:07:02;51.83;;;31.77;;
23001;SDS011;11667;51.706;4.856;2022-11-13T03:09:49;44.75;;;30.20;;
23001;SDS011;11667;51.706;4.856;2022-11-13T03:12:36;44.75;;;29.70;;
23001;SDS011;11667;51.706;4.856;2022-11-13T03:15:25;46.05;;;30.10;;
23001;SDS011;11667;51.706;4.856;2022-11-13T03:18:12;41.58;;;28.20;;
23001;SDS011;11667;51.706;4.856;2022-11-13T03:21:04;42.73;;;27.75;;
23001;SDS011;11667;51.706;4.856;2022-11-13T03:23:57;43.52;;;27.82;;
23001;SDS011;11667;51.706;4.856;2022-11-13T03:26:44;44.13;;;27.37;;
23001;SDS011;11667;51.706;4.856;2022-11-13T03:29:32;41.28;;;27.40;;
23001;SDS011;11667;51.706;4.856;2022-11-13T03:32:19;42.65;;;26.60;;
23001;SDS011;11667;51.706;4.856;2022-11-13T03:35:06;39.10;;;25.90;;
23001;SDS011;11667;51.706;4.856;2022-11-13T03:37:54;38.92;;;25.95;;
23001;SDS011;11667;51.706;4.856;2022-11-13T03:40:41;36.17;;;24.25;;
23001;SDS011;11667;51.706;4.856;2022-11-13T03:43:29;36.20;;;24.02;;
23001;SDS011;11667;51.706;4.856;2022-11-13T03:46:16;35.10;;;24.18;;
23001;SDS011;11667;51.706;4.856;2022-11-13T03:49:04;35.55;;;24.05;;
23001;SDS011;11667;51.706;4.856;2022-11-13T03:51:51;35.30;;;22.82;;
23001;SDS011;11667;51.706;4.856;2022-11-13T03:54:38;34.53;;;22.45;;
23001;SDS011;11667;51.706;4.856;2022-11-13T03:57:26;34.45;;;21.75;;
23001;SDS011;11667;51.706;4.856;2022-11-13T04:00:14;31.42;;;20.57;;
23001;SDS011;11667;51.706;4.856;2022-11-13T04:03:02;28.20;;;18.30;;
23001;SDS011;11667;51.706;4.856;2022-11-13T04:05:49;26.07;;;18.52;;
23001;SDS011;11667;51.706;4.856;2022-11-13T04:08:37;28.38;;;18.60;;
23001;SDS011;11667;51.706;4.856;2022-11-13T04:11:24;31.57;;;19.02;;
23001;SDS011;11667;51.706;4.856;2022-11-13T04:14:11;28.25;;;19.45;;
23001;SDS011;11667;51.706;4.856;2022-11-13T04:16:58;30.85;;;20.50;;
23001;SDS011;11667;51.706;4.856;2022-11-13T04:19:46;32.05;;;19.67;;
23001;SDS011;11667;51.706;4.856;2022-11-13T04:22:33;27.90;;;19.87;;
23001;SDS011;11667;51.706;4.856;2022-11-13T04:25:21;31.97;;;20.65;;
23001;SDS011;11667;51.706;4.856;2022-11-13T04:28:09;31.60;;;21.17;;
23001;SDS011;11667;51.706;4.856;2022-11-13T04:30:57;35.35;;;20.77;;
23001;SDS011;11667;51.706;4.856;2022-11-13T04:33:44;27.00;;;18.35;;
23001;SDS011;11667;51.706;4.856;2022-11-13T04:36:31;27.80;;;18.77;;
23001;SDS011;11667;51.706;4.856;2022-11-13T04:39:19;28.65;;;18.50;;
23001;SDS011;11667;51.706;4.856;2022-11-13T04:42:07;29.87;;;19.75;;
23001;SDS011;11667;51.706;4.856;2022-11-13T04:45:14;28.00;;;19.67;;
23001;SDS011;11667;51.706;4.856;2022-11-13T04:48:06;32.23;;;20.40;;
23001;SDS011;11667;51.706;4.856;2022-11-13T04:50:53;32.98;;;21.05;;
23001;SDS011;11667;51.706;4.856;2022-11-13T04:53:40;31.65;;;21.42;;
23001;SDS011;11667;51.706;4.856;2022-11-13T04:56:27;33.45;;;21.52;;
23001;SDS011;11667;51.706;4.856;2022-11-13T04:59:15;34.05;;;22.32;;
23001;SDS011;11667;51.706;4.856;2022-11-13T05:02:03;37.03;;;23.12;;
23001;SDS011;11667;51.706;4.856;2022-11-13T05:04:50;35.20;;;22.45;;
23001;SDS011;11667;51.706;4.856;2022-11-13T05:07:37;33.08;;;21.87;;
23001;SDS011;11667;51.706;4.856;2022-11-13T05:10:27;35.15;;;22.22;;
23001;SDS011;11667;51.706;4.856;2022-11-13T05:13:14;32.80;;;21.33;;
23001;SDS011;11667;51.706;4.856;2022-11-13T05:16:01;34.27;;;22.27;;
23001;SDS011;11667;51.706;4.856;2022-11-13T05:18:50;31.75;;;20.85;;
23001;SDS011;11667;51.706;4.856;2022-11-13T05:21:38;32.78;;;21.70;;
23001;SDS011;11667;51.706;4.856;2022-11-13T05:24:25;31.57;;;21.52;;
23001;SDS011;11667;51.706;4.856;2022-11-13T05:27:13;31.57;;;20.57;;
23001;SDS011;11667;51.706;4.856;2022-11-13T05:30:02;32.28;;;21.05;;
23001;SDS011;11667;51.706;4.856;2022-11-13T05:32:50;31.23;;;20.10;;
23001;SDS011;11667;51.706;4.856;2022-11-13T05:35:38;32.78;;;20.68;;
23001;SDS011;11667;51.706;4.856;2022-11-13T05:38:25;32.30;;;21.40;;
23001;SDS011;11667;51.706;4.856;2022-11-13T05:41:21;30.95;;;21.30;;
23001;SDS011;11667;51.706;4.856;2022-11-13T05:44:04;34.73;;;22.00;;
23001;SDS011;11667;51.706;4.856;2022-11-13T05:46:51;33.48;;;22.17;;
23001;SDS011;11667;51.706;4.856;2022-11-13T05:49:39;26.50;;;18.23;;
23001;SDS011;11667;51.706;4.856;2022-11-13T05:52:26;26.87;;;17.70;;
23001;SDS011;11667;51.706;4.856;2022-11-13T05:55:13;28.02;;;18.32;;
23001;SDS011;11667;51.706;4.856;2022-11-13T05:58:00;28.02;;;18.42;;
23001;SDS011;11667;51.706;4.856;2022-11-13T06:00:48;30.20;;;19.15;;
23001;SDS011;11667;51.706;4.856;2022-11-13T06:03:35;27.48;;;18.77;;
23001;SDS011;11667;51.706;4.856;2022-11-13T06:06:23;28.98;;;17.40;;
23001;SDS011;11667;51.706;4.856;2022-11-13T06:09:12;30.52;;;19.40;;
23001;SDS011;11667;51.706;4.856;2022-11-13T06:12:04;26.73;;;18.57;;
23001;SDS011;11667;51.706;4.856;2022-11-13T06:14:51;30.55;;;19.32;;
23001;SDS011;11667;51.706;4.856;2022-11-13T06:17:38;30.55;;;20.37;;
23001;SDS011;11667;51.706;4.856;2022-11-13T06:20:26;32.93;;;21.45;;
23001;SDS011;11667;51.706;4.856;2022-11-13T06:23:13;32.38;;;21.80;;
23001;SDS011;11667;51.706;4.856;2022-11-13T06:26:01;31.12;;;21.33;;
23001;SDS011;11667;51.706;4.856;2022-11-13T06:28:50;35.30;;;22.65;;
23001;SDS011;11667;51.706;4.856;2022-11-13T06:31:37;37.05;;;22.82;;
23001;SDS011;11667;51.706;4.856;2022-11-13T06:34:25;37.48;;;22.00;;
23001;SDS011;11667;51.706;4.856;2022-11-13T06:37:12;32.38;;;21.45;;
23001;SDS011;11667;51.706;4.856;2022-11-13T06:40:00;30.43;;;20.68;;
23001;SDS011;11667;51.706;4.856;2022-11-13T06:42:47;31.30;;;20.50;;
23001;SDS011;11667;51.706;4.856;2022-11-13T06:45:34;30.40;;;20.45;;
23001;SDS011;11667;51.706;4.856;2022-11-13T06:48:22;28.98;;;19.77;;
23001;SDS011;11667;51.706;4.856;2022-11-13T06:51:14;29.25;;;20.45;;
23001;SDS011;11667;51.706;4.856;2022-11-13T06:54:07;29.72;;;20.08;;
23001;SDS011;11667;51.706;4.856;2022-11-13T06:56:54;31.02;;;20.88;;
23001;SDS011;11667;51.706;4.856;2022-11-13T06:59:42;29.55;;;19.82;;
23001;SDS011;11667;51.706;4.856;2022-11-13T07:02:29;30.92;;;19.67;;
23001;SDS011;11667;51.706;4.856;2022-11-13T07:05:17;28.38;;;19.00;;
23001;SDS011;11667;51.706;4.856;2022-11-13T07:08:04;29.18;;;19.30;;
23001;SDS011;11667;51.706;4.856;2022-11-13T07:10:52;25.65;;;18.02;;
23001;SDS011;11667;51.706;4.856;2022-11-13T07:13:40;25.80;;;18.48;;
23001;SDS011;11667;51.706;4.856;2022-11-13T07:16:27;30.00;;;19.25;;
23001;SDS011;11667;51.706;4.856;2022-11-13T07:19:16;28.77;;;19.73;;
23001;SDS011;11667;51.706;4.856;2022-11-13T07:22:04;27.70;;;19.35;;
23001;SDS011;11667;51.706;4.856;2022-11-13T07:24:51;30.17;;;20.65;;
23001;SDS011;11667;51.706;4.856;2022-11-13T07:27:43;31.37;;;21.42;;
23001;SDS011;11667;51.706;4.856;2022-11-13T07:30:30;37.65;;;22.40;;
23001;SDS011;11667;51.706;4.856;2022-11-13T07:33:18;32.10;;;22.13;;
23001;SDS011;11667;51.706;4.856;2022-11-13T07:36:05;35.17;;;21.50;;
23001;SDS011;11667;51.706;4.856;2022-11-13T07:38:53;32.50;;;21.85;;
23001;SDS011;11667;51.706;4.856;2022-11-13T07:41:43;31.30;;;21.57;;
23001;SDS011;11667;51.706;4.856;2022-11-13T07:44:30;31.77;;;21.15;;
23001;SDS011;11667;51.706;4.856;2022-11-13T07:47:19;28.05;;;20.08;;
23001;SDS011;11667;51.706;4.856;2022-11-13T07:50:07;32.20;;;20.40;;
23001;SDS011;11667;51.706;4.856;2022-11-13T07:53:01;34.08;;;21.50;;
23001;SDS011;11667;51.706;4.856;2022-11-13T07:55:45;30.05;;;22.25;;
23001;SDS011;11667;51.706;4.856;2022-11-13T07:58:32;34.15;;;21.65;;
23001;SDS011;11667;51.706;4.856;2022-11-13T08:01:19;34.45;;;23.10;;
23001;SDS011;11667;51.706;4.856;2022-11-13T08:04:06;37.20;;;24.57;;
23001;SDS011;11667;51.706;4.856;2022-11-13T08:06:54;41.30;;;27.07;;
23001;SDS011;11667;51.706;4.856;2022-11-13T08:09:41;34.67;;;21.95;;
23001;SDS011;11667;51.706;4.856;2022-11-13T08:12:28;31.10;;;21.80;;
23001;SDS011;11667;51.706;4.856;2022-11-13T08:15:16;30.80;;;20.77;;
23001;SDS011;11667;51.706;4.856;2022-11-13T08:18:04;27.62;;;20.40;;
23001;SDS011;11667;51.706;4.856;2022-11-13T08:20:52;28.92;;;20.52;;
23001;SDS011;11667;51.706;4.856;2022-11-13T08:23:39;26.07;;;17.77;;
23001;SDS011;11667;51.706;4.856;2022-11-13T08:26:27;27.40;;;19.10;;
23001;SDS011;11667;51.706;4.856;2022-11-13T08:29:14;27.25;;;18.75;;
23001;SDS011;11667;51.706;4.856;2022-11-13T08:32:02;27.22;;;18.50;;
23001;SDS011;11667;51.706;4.856;2022-11-13T08:34:50;27.27;;;18.17;;
23001;SDS011;11667;51.706;4.856;2022-11-13T08:37:37;24.50;;;16.93;;
23001;SDS011;11667;51.706;4.856;2022-11-13T08:40:24;22.50;;;17.00;;
23001;SDS011;11667;51.706;4.856;2022-11-13T08:43:12;24.77;;;17.37;;
23001;SDS011;11667;51.706;4.856;2022-11-13T08:45:59;23.00;;;17.17;;
23001;SDS011;11667;51.706;4.856;2022-11-13T08:48:46;23.60;;;16.80;;
23001;SDS011;11667;51.706;4.856;2022-11-13T08:51:33;23.92;;;16.67;;
23001;SDS011;11667;51.706;4.856;2022-11-13T08:54:21;24.63;;;15.60;;
23001;SDS011;11667;51.706;4.856;2022-11-13T08:57:09;20.60;;;15.18;;
23001;SDS011;11667;51.706;4.856;2022-11-13T08:59:57;20.85;;;15.20;;
23001;SDS011;11667;51.706;4.856;2022-11-13T09:02:44;25.48;;;18.07;;
23001;SDS011;11667;51.706;4.856;2022-11-13T09:05:31;20.37;;;16.23;;
23001;SDS011;11667;51.706;4.856;2022-11-13T09:08:19;19.70;;;14.83;;
23001;SDS011;11667;51.706;4.856;2022-11-13T09:11:05;20.80;;;14.85;;
23001;SDS011;11667;51.706;4.856;2022-11-13T09:13:53;19.35;;;12.98;;
23001;SDS011;11667;51.706;4.856;2022-11-13T09:16:41;17.10;;;12.40;;
23001;SDS011;11667;51.706;4.856;2022-11-13T09:19:28;15.43;;;11.22;;
23001;SDS011;11667;51.706;4.856;2022-11-13T09:22:16;15.53;;;10.18;;
23001;SDS011;11667;51.706;4.856;2022-11-13T09:25:03;14.07;;;10.53;;
23001;SDS011;11667;51.706;4.856;2022-11-13T09:27:51;12.65;;;9.80;;
23001;SDS011;11667;51.706;4.856;2022-11-13T09:30:40;11.68;;;9.03;;
23001;SDS011;11667;51.706;4.856;2022-11-13T09:33:27;11.73;;;9.20;;
23001;SDS011;11667;51.706;4.856;2022-11-13T09:36:15;13.83;;;10.20;;
23001;SDS011;11667;51.706;4.856;2022-11-13T09:39:02;16.40;;;10.90;;
23001;SDS011;11667;51.706;4.856;2022-11-13T09:41:58;11.80;;;9.15;;
23001;SDS011;11667;51.706;4.856;2022-11-13T09:44:51;12.82;;;8.58;;
23001;SDS011;11667;51.706;4.856;2022-11-13T09:47:46;10.85;;;8.53;;
23001;SDS011;11667;51.706;4.856;2022-11-13T09:50:30;13.10;;;8.53;;
23001;SDS011;11667;51.706;4.856;2022-11-13T09:53:18;9.70;;;7.62;;
23001;SDS011;11667;51.706;4.856;2022-11-13T09:59:33;10.35;;;8.30;;
23001;SDS011;11667;51.706;4.856;2022-11-13T10:02:33;10.28;;;8.18;;
23001;SDS011;11667;51.706;4.856;2022-11-13T10:11:44;9.65;;;8.40;;
23001;SDS011;11667;51.706;4.856;2022-11-13T10:14:36;9.15;;;7.70;;
23001;SDS011;11667;51.706;4.856;2022-11-13T10:17:35;9.88;;;7.67;;
23001;SDS011;11667;51.706;4.856;2022-11-13T10:23:22;10.15;;;7.80;;
23001;SDS011;11667;51.706;4.856;2022-11-13T10:26:21;11.28;;;8.13;;
23001;SDS011;11667;51.706;4.856;2022-11-13T10:32:00;9.95;;;8.58;;
23001;SDS011;11667;51.706;4.856;2022-11-13T10:38:19;8.95;;;8.05;;
23001;SDS011;11667;51.706;4.856;2022-11-13T10:41:15;9.28;;;8.10;;
23001;SDS011;11667;51.706;4.856;2022-11-13T10:44:19;8.95;;;8.05;;
23001;SDS011;11667;51.706;4.856;2022-11-13T10:47:04;10.65;;;8.15;;
23001;SDS011;11667;51.706;4.856;2022-11-13T10:50:19;8.55;;;7.65;;
23001;SDS011;11667;51.706;4.856;2022-11-13T10:53:17;10.53;;;7.97;;
23001;SDS011;11667;51.706;4.856;2022-11-13T10:56:12;9.15;;;7.78;;
23001;SDS011;11667;51.706;4.856;2022-11-13T10:59:02;9.65;;;8.25;;
23001;SDS011;11667;51.706;4.856;2022-11-13T11:02:06;9.30;;;8.03;;
23001;SDS011;11667;51.706;4.856;2022-11-13T11:04:47;9.28;;;8.10;;
23001;SDS011;11667;51.706;4.856;2022-11-13T11:07:38;9.38;;;8.08;;
23001;SDS011;11667;51.706;4.856;2022-11-13T11:10:30;10.30;;;8.10;;
23001;SDS011;11667;51.706;4.856;2022-11-13T11:13:20;10.20;;;8.43;;
23001;SDS011;11667;51.706;4.856;2022-11-13T11:16:10;10.23;;;8.80;;
23001;SDS011;11667;51.706;4.856;2022-11-13T11:19:00;10.40;;;9.25;;
23001;SDS011;11667;51.706;4.856;2022-11-13T11:21:49;10.13;;;9.10;;
23001;SDS011;11667;51.706;4.856;2022-11-13T11:24:41;11.18;;;8.83;;
23001;SDS011;11667;51.706;4.856;2022-11-13T11:27:40;11.88;;;9.18;;
23001;SDS011;11667;51.706;4.856;2022-11-13T11:30:30;10.23;;;9.03;;
23001;SDS011;11667;51.706;4.856;2022-11-13T11:33:27;9.40;;;8.38;;
23001;SDS011;11667;51.706;4.856;2022-11-13T11:39:14;9.70;;;8.70;;
23001;SDS011;11667;51.706;4.856;2022-11-13T11:45:31;10.40;;;8.90;;
23001;SDS011;11667;51.706;4.856;2022-11-13T11:48:25;10.98;;;8.55;;
23001;SDS011;11667;51.706;4.856;2022-11-13T11:51:24;9.78;;;8.63;;
23001;SDS011;11667;51.706;4.856;2022-11-13T11:57:28;10.72;;;8.88;;
23001;SDS011;11667;51.706;4.856;2022-11-13T12:00:14;11.63;;;9.08;;
23001;SDS011;11667;51.706;4.856;2022-11-13T12:06:29;11.18;;;9.43;;
23001;SDS011;11667;51.706;4.856;2022-11-13T12:09:21;11.22;;;9.50;;
23001;SDS011;11667;51.706;4.856;2022-11-13T12:30:19;11.57;;;9.28;;
23001;SDS011;11667;51.706;4.856;2022-11-13T12:33:20;11.50;;;9.65;;
23001;SDS011;11667;51.706;4.856;2022-11-13T12:36:11;13.78;;;9.70;;
23001;SDS011;11667;51.706;4.856;2022-11-13T12:42:27;11.30;;;9.43;;
23001;SDS011;11667;51.706;4.856;2022-11-13T12:45:24;12.00;;;9.20;;
23001;SDS011;11667;51.706;4.856;2022-11-13T12:51:05;13.30;;;9.98;;
23001;SDS011;11667;51.706;4.856;2022-11-13T12:53:54;14.20;;;10.28;;
23001;SDS011;11667;51.706;4.856;2022-11-13T12:56:42;13.80;;;10.75;;
23001;SDS011;11667;51.706;4.856;2022-11-13T12:59:31;13.50;;;10.40;;
23001;SDS011;11667;51.706;4.856;2022-11-13T13:09:02;13.65;;;10.15;;
23001;SDS011;11667;51.706;4.856;2022-11-13T13:15:43;12.35;;;9.13;;
23001;SDS011;11667;51.706;4.856;2022-11-13T13:18:28;11.43;;;8.70;;
23001;SDS011;11667;51.706;4.856;2022-11-13T13:27:23;13.85;;;9.18;;
23001;SDS011;11667;51.706;4.856;2022-11-13T13:30:14;12.20;;;9.38;;
23001;SDS011;11667;51.706;4.856;2022-11-13T13:36:05;14.28;;;9.98;;
23001;SDS011;11667;51.706;4.856;2022-11-13T13:38:55;14.20;;;9.63;;
23001;SDS011;11667;51.706;4.856;2022-11-13T13:48:49;14.25;;;9.53;;
23001;SDS011;11667;51.706;4.856;2022-11-13T13:51:44;11.05;;;9.00;;
23001;SDS011;11667;51.706;4.856;2022-11-13T13:54:34;11.65;;;9.18;;
23001;SDS011;11667;51.706;4.856;2022-11-13T13:57:23;11.68;;;8.40;;
23001;SDS011;11667;51.706;4.856;2022-11-13T14:00:12;12.95;;;9.10;;
23001;SDS011;11667;51.706;4.856;2022-11-13T14:03:00;14.05;;;11.00;;
23001;SDS011;11667;51.706;4.856;2022-11-13T14:05:48;15.48;;;12.80;;
23001;SDS011;11667;51.706;4.856;2022-11-13T14:08:35;17.80;;;13.53;;
23001;SDS011;11667;51.706;4.856;2022-11-13T14:11:23;18.02;;;14.20;;
23001;SDS011;11667;51.706;4.856;2022-11-13T14:14:22;18.80;;;15.03;;
23001;SDS011;11667;51.706;4.856;2022-11-13T14:17:08;18.87;;;14.93;;
23001;SDS011;11667;51.706;4.856;2022-11-13T14:19:56;22.02;;;15.85;;
23001;SDS011;11667;51.706;4.856;2022-11-13T14:22:47;19.55;;;15.63;;
23001;SDS011;11667;51.706;4.856;2022-11-13T14:25:38;19.90;;;15.87;;
23001;SDS011;11667;51.706;4.856;2022-11-13T14:28:26;20.95;;;16.02;;
23001;SDS011;11667;51.706;4.856;2022-11-13T14:31:15;21.70;;;16.90;;
23001;SDS011;11667;51.706;4.856;2022-11-13T14:34:13;20.55;;;16.17;;
23001;SDS011;11667;51.706;4.856;2022-11-13T14:37:03;21.50;;;17.05;;
23001;SDS011;11667;51.706;4.856;2022-11-13T14:40:49;23.95;;;18.25;;
23001;SDS011;11667;51.706;4.856;2022-11-13T14:43:03;21.90;;;16.12;;
23001;SDS011;11667;51.706;4.856;2022-11-13T14:45:52;20.40;;;16.25;;
23001;SDS011;11667;51.706;4.856;2022-11-13T14:48:40;19.35;;;15.75;;
23001;SDS011;11667;51.706;4.856;2022-11-13T14:51:32;19.98;;;15.65;;
23001;SDS011;11667;51.706;4.856;2022-11-13T14:57:23;21.02;;;16.30;;
23001;SDS011;11667;51.706;4.856;2022-11-13T15:00:11;18.07;;;15.48;;
23001;SDS011;11667;51.706;4.856;2022-11-13T15:03:00;20.75;;;15.50;;
23001;SDS011;11667;51.706;4.856;2022-11-13T15:05:49;18.32;;;15.58;;
23001;SDS011;11667;51.706;4.856;2022-11-13T15:08:36;19.42;;;15.88;;
23001;SDS011;11667;51.706;4.856;2022-11-13T15:11:24;19.82;;;16.45;;
23001;SDS011;11667;51.706;4.856;2022-11-13T15:14:12;21.87;;;16.80;;
23001;SDS011;11667;51.706;4.856;2022-11-13T15:17:00;27.30;;;18.95;;
23001;SDS011;11667;51.706;4.856;2022-11-13T15:19:48;22.52;;;19.30;;
23001;SDS011;11667;51.706;4.856;2022-11-13T15:22:36;24.52;;;18.73;;
23001;SDS011;11667;51.706;4.856;2022-11-13T15:25:25;21.87;;;17.23;;
23001;SDS011;11667;51.706;4.856;2022-11-13T15:28:12;21.62;;;17.48;;
23001;SDS011;11667;51.706;4.856;2022-11-13T15:30:59;20.48;;;15.95;;
23001;SDS011;11667;51.706;4.856;2022-11-13T15:33:46;18.80;;;13.75;;
23001;SDS011;11667;51.706;4.856;2022-11-13T15:36:33;20.52;;;14.90;;
23001;SDS011;11667;51.706;4.856;2022-11-13T15:39:20;23.30;;;16.32;;
23001;SDS011;11667;51.706;4.856;2022-11-13T15:42:18;22.20;;;16.70;;
23001;SDS011;11667;51.706;4.856;2022-11-13T15:45:00;22.77;;;16.67;;
23001;SDS011;11667;51.706;4.856;2022-11-13T15:47:49;20.75;;;15.90;;
23001;SDS011;11667;51.706;4.856;2022-11-13T15:50:36;22.75;;;16.23;;
23001;SDS011;11667;51.706;4.856;2022-11-13T15:53:23;21.65;;;16.17;;
23001;SDS011;11667;51.706;4.856;2022-11-13T15:56:11;21.82;;;16.15;;
23001;SDS011;11667;51.706;4.856;2022-11-13T15:58:58;22.85;;;16.57;;
23001;SDS011;11667;51.706;4.856;2022-11-13T16:01:46;20.90;;;16.35;;
23001;SDS011;11667;51.706;4.856;2022-11-13T16:04:35;23.02;;;16.97;;
23001;SDS011;11667;51.706;4.856;2022-11-13T16:07:25;21.87;;;15.88;;
23001;SDS011;11667;51.706;4.856;2022-11-13T16:10:16;21.05;;;16.52;;
23001;SDS011;11667;51.706;4.856;2022-11-13T16:13:04;21.73;;;16.20;;
23001;SDS011;11667;51.706;4.856;2022-11-13T16:15:52;21.87;;;16.32;;
23001;SDS011;11667;51.706;4.856;2022-11-13T16:18:39;22.15;;;16.45;;
23001;SDS011;11667;51.706;4.856;2022-11-13T16:21:27;21.23;;;16.77;;
23001;SDS011;11667;51.706;4.856;2022-11-13T16:24:14;23.45;;;16.85;;
23001;SDS011;11667;51.706;4.856;2022-11-13T16:27:04;24.15;;;18.02;;
23001;SDS011;11667;51.706;4.856;2022-11-13T16:29:51;26.60;;;18.27;;
23001;SDS011;11667;51.706;4.856;2022-11-13T16:32:39;25.23;;;18.98;;
23001;SDS011;11667;51.706;4.856;2022-11-13T16:35:26;29.30;;;19.95;;
23001;SDS011;11667;51.706;4.856;2022-11-13T16:38:13;27.40;;;19.75;;
23001;SDS011;11667;51.706;4.856;2022-11-13T16:41:01;27.25;;;19.17;;
23001;SDS011;11667;51.706;4.856;2022-11-13T16:43:48;25.30;;;17.73;;
23001;SDS011;11667;51.706;4.856;2022-11-13T16:46:36;25.02;;;17.40;;
23001;SDS011;11667;51.706;4.856;2022-11-13T16:49:26;26.48;;;18.80;;
23001;SDS011;11667;51.706;4.856;2022-11-13T16:52:13;28.67;;;18.95;;
23001;SDS011;11667;51.706;4.856;2022-11-13T16:55:01;31.82;;;22.30;;
23001;SDS011;11667;51.706;4.856;2022-11-13T16:57:50;33.40;;;22.15;;
23001;SDS011;11667;51.706;4.856;2022-11-13T17:00:37;31.73;;;22.60;;
23001;SDS011;11667;51.706;4.856;2022-11-13T17:03:25;41.68;;;27.82;;
23001;SDS011;11667;51.706;4.856;2022-11-13T17:06:20;41.77;;;26.40;;
23001;SDS011;11667;51.706;4.856;2022-11-13T17:09:12;59.27;;;36.70;;
23001;SDS011;11667;51.706;4.856;2022-11-13T17:12:00;30.23;;;20.15;;
23001;SDS011;11667;51.706;4.856;2022-11-13T17:14:47;40.67;;;25.85;;
23001;SDS011;11667;51.706;4.856;2022-11-13T17:17:34;43.95;;;28.25;;
23001;SDS011;11667;51.706;4.856;2022-11-13T17:20:22;67.42;;;36.28;;
23001;SDS011;11667;51.706;4.856;2022-11-13T17:23:13;60.90;;;38.17;;
23001;SDS011;11667;51.706;4.856;2022-11-13T17:26:00;60.58;;;37.23;;
23001;SDS011;11667;51.706;4.856;2022-11-13T17:28:49;71.90;;;44.10;;
23001;SDS011;11667;51.706;4.856;2022-11-13T17:31:36;81.42;;;50.03;;
23001;SDS011;11667;51.706;4.856;2022-11-13T17:34:24;67.70;;;41.70;;
23001;SDS011;11667;51.706;4.856;2022-11-13T17:37:12;67.47;;;43.08;;
23001;SDS011;11667;51.706;4.856;2022-11-13T17:39:59;41.28;;;27.35;;
23001;SDS011;11667;51.706;4.856;2022-11-13T17:42:46;33.78;;;22.30;;
23001;SDS011;11667;51.706;4.856;2022-11-13T17:45:34;36.28;;;24.95;;
23001;SDS011;11667;51.706;4.856;2022-11-13T17:48:22;39.03;;;23.42;;
23001;SDS011;11667;51.706;4.856;2022-11-13T17:51:10;30.05;;;18.98;;
23001;SDS011;11667;51.706;4.856;2022-11-13T17:53:58;29.67;;;20.37;;
23001;SDS011;11667;51.706;4.856;2022-11-13T17:56:46;22.48;;;15.53;;
23001;SDS011;11667;51.706;4.856;2022-11-13T17:59:33;28.80;;;19.02;;
23001;SDS011;11667;51.706;4.856;2022-11-13T18:02:21;30.52;;;19.35;;
23001;SDS011;11667;51.706;4.856;2022-11-13T18:05:08;33.58;;;21.48;;